Архив погоды во Владимире

Метеограмма Владимир
Воскресенье, 31 Мая
Время местн. Темп Ветер Видим Явления Облачность нижн/средн/верх Атм. давл. Влжн Точка росы ВНГО R Сост. почвы Tg s
Напр Скр Прв ур.ст ур.м изм
09:00 +11.1° С-В 4 10 4 км слабый ливневый дождь облачно 742 757 -0.5 92% +9.9° 300 м - - - -
06:00 +10.8° С,С-В 5 10 4 км слабый ливневый дождь облачно 742 758 -0.6 93% +9.7° 200 м - Влажная (без луж) - -
03:00 +13.1° С-В 4 - 10 км - облачно 743 758 -0.7 80% +9.7° 600 м - - - -
00:00 +14.8° С-В 3 - 10 км - облачно 743 759 +0.2 80% +11.4° 600 м - - - -
Суббота, 30 Мая
Время местн. Темп Ветер Видим Явления Облачность нижн/средн/верх Атм. давл. Влжн Точка росы ВНГО R Сост. почвы Tg s
Напр Скр Прв ур.ст ур.м изм
21:00 +16.1° С,С-В 5 - 10 км - облачно с прояснениями 743 758 +0.6 81% +12.8° 1 км - - - -
18:00 +24° С,С-В 5 - 10 км - облачно с прояснениями 743 757 -1 56% +14.6° 1 км - - - -
15:00 +23.7° С,С-В 5 - 10 км - облачно с прояснениями 744 758 -1.5 57% +14.8° 1 км - - - -
12:00 +21.2° С,С-В 4 - 10 км - переменная облачность 745 760 -0.5 66% +14.7° 1 км - - - -
09:00 +15.5° С-В 2 - 4 км дымка облачно 746 761 -0.8 83% +12.7° 200 м - - - -
06:00 +12.2° С-В 3 - 4 км дымка облачно 747 762 -0.1 94% +11.3° 200 м - Влажная (без луж) - -
03:00 +11.3° С-В 2 - 4 км дымка облачно 747 762 -0.5 95% +10.5° 300 м - - - -
00:00 +12° С,С-В 3 - 4 км дымка облачно с прояснениями 747 762 -0.4 94% +11° 1 км - - - -
Пятница, 29 Мая
Время местн. Темп Ветер Видим Явления Облачность нижн/средн/верх Атм. давл. Влжн Точка росы ВНГО R Сост. почвы Tg s
Напр Скр Прв ур.ст ур.м изм
21:00 +12.8° С-В 1 - 4 км дымка преимущественно облачно 747 763 -0.5 91% +11.3° 1 км - - - -
18:00 +15.8° С,С-В 4 - 10 км - облачно 748 763 -0.2 80% +12.3° 1 км - - - -
15:00 +14.9° С 5 - 10 км небо без изменений {ливневые осадки} облачно 748 763 -0.2 86% +12.5° 600 м - - - -
12:00 +15° С-В 2 - 4 км ливневый дождь облачно 748 764 -1 88% +13° 600 м - - - -
09:00 +12.3° С-В 1 - 2 км слабый ливневый дождь облачно 749 765 -1.3 93% +11.2° 300 м - - - -
06:00 +14.7° В 1 - 10 км - облачно 750 766 -0.7 63% +7.8° 1 км - Влажная (без луж) - -
03:00 +12.2° штиль 0 - 10 км - облачно с прояснениями 751 767 -0.5 79% +8.6° 1 км - - - -
00:00 +12.4° Ю-З 2 - 10 км - облачно с прояснениями 752 767 -0.2 69% +6.8° 1 км - - - -
Четверг, 28 Мая
Время местн. Темп Ветер Видим Явления Облачность нижн/средн/верх Атм. давл. Влжн Точка росы ВНГО R Сост. почвы Tg s
Напр Скр Прв ур.ст ур.м изм
21:00 +14.2° штиль 0 - 10 км - облачно с прояснениями 752 767 -0.2 67% +8.2° 1 км - - - -
18:00 +20.6° штиль 0 - 10 км - облачно с прояснениями 752 767 -0.3 33% +3.7° 1 км 0 - - -
15:00 +21.7° Ю,Ю-З 1 - 10 км - облачно с прояснениями 752 767 -0.6 33% +4.7° 1 км - - - -
12:00 +19.9° З 2 - 10 км - переменная облачность 753 768 -0.6 41% +6.1° 1 км - - - -
09:00 +16.6° Ю-З 3 - 10 км - ясно 753 769 +0.3 54% +7.3° более 2.5 км - - - -
06:00 +11.2° Ю,Ю-З 1 - 10 км - переменная облачность 753 769 +0.1 75% +7° более 2.5 км - Влажная (без луж) - -